首页
METAR-TAF:

METAR-TAF

机场 :

赫羅納-布拉瓦海岸機場

赫罗纳, 西班牙

纬度: 41-54N, 经度: 002-46E, 海拔: 143米

当前天气观测

该预报发布于36分钟前的21:00 UTC
静风
温度 9°C
湿度 100%
气压 1022 hPa
能見度: 8000
多云层高于700英尺

METAR: LEGE 292100Z 00000KT 8000 BKN007 09/09 Q1022

时间: 22:36 (21:36 UTC)

预报

该预报发布于3小时和3分钟前的18:33 UTC
预报有效从29日的 18点(UTC)到 30日的 18点(UTC)
风速3节,风向多变
能见度10公里或以上
多云层高于1000英尺
短暂存在
从 29日的 20点(UTC)到 30日的 11点(UTC)
能見度: 3000
轻雾
几率 40% :
短暂存在
从 30日的 00点(UTC)到 30日的 10点(UTC)
能見度: 0500
层高于200英尺
碎片雾

TAF: LEGE 291833Z 2918/3018 VRB03KT 9999 BKN010 TX16/3013Z TN04/3006Z TEMPO 2920/3011 3000 BR PROB40 TEMPO 3000/3010 0500 BCFG VV002

超过4000个机场的气象观测和天气预报(METAR&TAF报告)。

可查询的气象台以黄色和红色小点在地图上表示。

将鼠标移到小点上方,可查看气象台名称。

然后点击查看天气观测和预报。

如需切换地图:点击带黑十字的绿色按钮放大地图;点击带横线的绿色按钮缩小地图;或者点击绿色箭头查看邻近地区的地图。


METAR-TAF: